Time;durP1;ratioP1;P1;durP2;ratioP2;P2;SDS_P1;SDS_P2;PMS_P1;PMS_P2;Temp;Humidity;BMP_temperature;BMP_pressure;BME280_temperature;BME280_humidity;BME280_pressure;Samples;Min_cycle;Max_cycle;Signal;HPM_P1;HPM_P2
2024/02/05 04:05:35;;;;;;;0.10;0.10;;;9.50;99.90;;;;;;5021458;23;20053;-75
2024/02/05 04:08:01;;;;;;;0.10;0.10;;;9.50;99.90;;;;;;4895410;29;20052;-74
2024/02/05 04:10:28;;;;;;;0.80;0.30;;;9.50;99.90;;;;;;4897438;29;20044;-74
2024/02/05 04:12:54;;;;;;;0.10;0.10;;;9.50;99.90;;;;;;4893774;29;20029;-75
2024/02/05 04:15:21;;;;;;;0.10;0.10;;;9.50;99.90;;;;;;4902220;29;20036;-74
2024/02/05 04:17:47;;;;;;;0.15;0.15;;;9.40;99.90;;;;;;4895438;29;20040;-74
2024/02/05 04:20:14;;;;;;;0.10;0.10;;;9.40;99.90;;;;;;4896118;29;20575;-74
2024/02/05 04:22:41;;;;;;;0.40;0.40;;;9.40;99.90;;;;;;4897141;29;20033;-74
2024/02/05 04:25:08;;;;;;;1.20;0.63;;;9.40;99.90;;;;;;4901478;29;20036;-74
2024/02/05 04:27:36;;;;;;;0.10;0.10;;;9.40;99.90;;;;;;4911325;29;20048;-74
2024/02/05 04:30:03;;;;;;;0.22;0.22;;;9.30;99.90;;;;;;4899421;29;20032;-74
2024/02/05 04:32:31;;;;;;;0.30;0.30;;;9.30;99.90;;;;;;4897672;29;20048;-74
2024/02/05 04:34:57;;;;;;;0.10;0.10;;;9.30;99.90;;;;;;4904425;29;20036;-74
2024/02/05 04:37:25;;;;;;;0.57;0.30;;;9.30;99.90;;;;;;4899906;29;20482;-74
2024/02/05 04:39:52;;;;;;;1.75;0.55;;;9.30;99.90;;;;;;4895290;29;20056;-74
2024/02/05 04:42:19;;;;;;;0.35;0.22;;;9.30;99.90;;;;;;4903507;29;20055;-74
2024/02/05 04:44:45;;;;;;;0.17;0.17;;;9.30;99.90;;;;;;4901456;29;20028;-74
2024/02/05 04:47:11;;;;;;;1.65;1.30;;;9.30;99.90;;;;;;4904482;29;20051;-74
2024/02/05 04:49:37;;;;;;;0.47;0.47;;;9.30;99.90;;;;;;4905556;29;20044;-75
2024/02/05 04:52:03;;;;;;;0.10;0.10;;;9.30;99.90;;;;;;4899808;29;20047;-74
2024/02/05 04:54:30;;;;;;;0.10;0.10;;;9.30;99.90;;;;;;4893937;29;20028;-74
2024/02/05 04:56:56;;;;;;;0.10;0.10;;;9.30;99.90;;;;;;4895533;29;20049;-75
2024/02/05 04:59:22;;;;;;;0.10;0.10;;;9.30;99.90;;;;;;4900256;29;20045;-74
2024/02/05 05:01:49;;;;;;;9.60;0.63;;;9.30;99.90;;;;;;4903300;29;20040;-74
2024/02/05 05:04:15;;;;;;;0.20;0.10;;;9.30;99.90;;;;;;4898205;29;20032;-75
2024/02/05 05:06:43;;;;;;;0.15;0.15;;;9.30;99.90;;;;;;4893100;29;20057;-75
2024/02/05 05:09:09;;;;;;;1.45;0.47;;;9.20;99.90;;;;;;4880398;29;20045;-74
2024/02/05 05:11:35;;;;;;;0.22;0.22;;;9.20;99.90;;;;;;4873233;29;20045;-75
2024/02/05 05:14:02;;;;;;;0.20;0.20;;;9.20;99.90;;;;;;4877031;29;20044;-75
2024/02/05 05:16:30;;;;;;;0.13;0.13;;;9.20;99.90;;;;;;4877381;29;20039;-75
2024/02/05 05:19:01;;;;;;;0.10;0.10;;;9.10;99.90;;;;;;4879989;29;20053;-74
2024/02/05 05:21:28;;;;;;;0.10;0.10;;;9.10;99.90;;;;;;4879006;29;20040;-75
2024/02/05 05:23:54;;;;;;;0.25;0.20;;;9.10;99.90;;;;;;4878486;29;20506;-75
2024/02/05 05:26:23;;;;;;;0.10;0.10;;;9.10;99.90;;;;;;4879547;29;20060;-74
2024/02/05 05:28:51;;;;;;;0.40;0.40;;;9.10;99.90;;;;;;4878975;29;20040;-74
2024/02/05 05:31:17;;;;;;;0.10;0.10;;;9.10;99.90;;;;;;4879797;29;20044;-75
2024/02/05 05:33:47;;;;;;;0.28;0.28;;;9.10;99.90;;;;;;4882158;29;20036;-75
2024/02/05 05:36:13;;;;;;;0.10;0.10;;;9.10;99.90;;;;;;4878196;29;20096;-74
2024/02/05 05:38:39;;;;;;;0.20;0.20;;;9.00;99.90;;;;;;4887794;29;20422;-75
2024/02/05 05:41:06;;;;;;;0.13;0.13;;;9.00;99.90;;;;;;4879863;29;20033;-74
2024/02/05 05:43:32;;;;;;;0.20;0.20;;;8.90;1.00;;;;;;4878327;29;20040;-74
2024/02/05 05:45:58;;;;;;;0.10;0.10;;;8.90;1.00;;;;;;4882756;29;20048;-75
2024/02/05 05:48:25;;;;;;;0.10;0.10;;;8.80;1.00;;;;;;4880098;29;20052;-74
2024/02/05 05:50:51;;;;;;;0.95;0.47;;;8.80;1.00;;;;;;4878730;29;20037;-74
2024/02/05 05:53:17;;;;;;;0.28;0.28;;;8.70;1.00;;;;;;4881613;29;20422;-75
2024/02/05 05:55:47;;;;;;;0.45;0.45;;;8.70;1.00;;;;;;4876614;29;20026;-75
2024/02/05 05:58:13;;;;;;;0.20;0.20;;;8.60;1.00;;;;;;4878824;29;20045;-75
2024/02/05 06:00:39;;;;;;;0.25;0.25;;;8.60;1.00;;;;;;4878233;29;20037;-77
2024/02/05 06:03:06;;;;;;;0.30;0.30;;;8.60;1.00;;;;;;4889477;29;20037;-75
2024/02/05 06:05:32;;;;;;;0.10;0.10;;;8.60;1.00;;;;;;4882326;29;20040;-75
2024/02/05 06:07:58;;;;;;;10.70;0.82;;;8.50;1.00;;;;;;4907485;29;20075;-74
2024/02/05 06:10:24;;;;;;;0.10;0.10;;;8.50;1.00;;;;;;4915579;29;20040;-73
2024/02/05 06:12:50;;;;;;;0.10;0.10;;;8.50;1.00;;;;;;4916134;29;20389;-73
2024/02/05 06:15:17;;;;;;;0.30;0.30;;;8.60;1.00;;;;;;4915189;29;20377;-73
2024/02/05 06:17:43;;;;;;;0.10;0.10;;;8.50;1.00;;;;;;4915518;29;20035;-74
2024/02/05 06:20:09;;;;;;;0.10;0.10;;;8.50;1.00;;;;;;4914907;29;20055;-76
2024/02/05 06:22:36;;;;;;;0.10;0.10;;;8.50;1.00;;;;;;4918067;29;20040;-74
2024/02/05 06:25:02;;;;;;;0.20;0.20;;;8.50;1.00;;;;;;4915076;29;20358;-74
2024/02/05 06:27:29;;;;;;;0.30;0.30;;;8.50;1.00;;;;;;4916441;29;20039;-73
2024/02/05 06:29:55;;;;;;;0.47;0.40;;;8.50;1.00;;;;;;4915951;29;20047;-74
2024/02/05 06:32:21;;;;;;;0.17;0.17;;;8.50;1.00;;;;;;4916243;29;20396;-74
2024/02/05 06:34:49;;;;;;;0.40;0.40;;;8.50;1.00;;;;;;4914655;29;20036;-75
2024/02/05 06:37:15;;;;;;;0.10;0.10;;;8.50;1.00;;;;;;4916830;29;20044;-74
2024/02/05 06:39:42;;;;;;;0.10;0.10;;;8.50;1.00;;;;;;4912367;29;20036;-75
2024/02/05 06:42:08;;;;;;;0.10;0.10;;;8.50;1.00;;;;;;4914534;29;20055;-74
2024/02/05 06:44:34;;;;;;;0.40;0.20;;;8.60;1.00;;;;;;4911658;29;20044;-74
2024/02/05 06:47:04;;;;;;;0.47;0.47;;;8.60;1.00;;;;;;4914171;29;20043;-75
2024/02/05 06:49:30;;;;;;;0.43;0.30;;;8.60;1.00;;;;;;4915284;29;20374;-75
2024/02/05 06:51:56;;;;;;;0.93;0.80;;;8.60;1.00;;;;;;4912177;29;20040;-75
2024/02/05 06:54:22;;;;;;;0.10;0.10;;;8.60;1.00;;;;;;4914813;29;20464;-74
2024/02/05 06:56:48;;;;;;;0.20;0.20;;;8.60;1.00;;;;;;4915251;29;20389;-73
2024/02/05 06:59:15;;;;;;;0.10;0.10;;;8.60;1.00;;;;;;4912482;29;20052;-74
2024/02/05 07:01:42;;;;;;;0.10;0.10;;;8.60;1.00;;;;;;4915908;29;20040;-79
2024/02/05 07:04:08;;;;;;;0.10;0.10;;;8.60;1.00;;;;;;4913829;29;20039;-74
2024/02/05 07:06:34;;;;;;;0.55;0.55;;;8.60;1.00;;;;;;4915618;29;20075;-75
2024/02/05 07:09:00;;;;;;;0.10;0.10;;;8.60;1.00;;;;;;4915027;29;20044;-76
2024/02/05 07:11:26;;;;;;;0.75;0.73;;;8.60;1.00;;;;;;4901239;29;20032;-75
2024/02/05 07:13:52;;;;;;;0.93;0.93;;;8.60;1.00;;;;;;4914315;29;20036;-74
2024/02/05 07:16:21;;;;;;;0.20;0.20;;;8.60;1.00;;;;;;4915028;29;20059;-75
2024/02/05 07:18:47;;;;;;;0.43;0.43;;;8.60;1.00;;;;;;4913185;29;20036;-76
2024/02/05 07:21:13;;;;;;;0.10;0.10;;;8.70;1.00;;;;;;4912678;29;20051;-74
2024/02/05 07:23:41;;;;;;;0.10;0.10;;;8.70;1.00;;;;;;4912518;29;20047;-82
2024/02/05 07:26:07;;;;;;;0.20;0.20;;;8.60;1.00;;;;;;4913216;29;20028;-74
2024/02/05 07:28:33;;;;;;;0.20;0.20;;;8.70;1.00;;;;;;4897801;29;20051;-75
2024/02/05 07:30:59;;;;;;;0.10;0.10;;;8.70;1.00;;;;;;4911919;29;20035;-74
2024/02/05 07:33:25;;;;;;;0.32;0.32;;;8.70;1.00;;;;;;4914234;29;20031;-74
2024/02/05 07:35:51;;;;;;;0.10;0.10;;;8.80;1.00;;;;;;4911697;29;20366;-74
2024/02/05 07:38:18;;;;;;;1.08;0.47;;;8.80;1.00;;;;;;4913152;29;20054;-74
2024/02/05 07:40:45;;;;;;;0.30;0.30;;;8.90;1.00;;;;;;4911169;29;20040;-78
2024/02/05 07:43:11;;;;;;;1.23;0.95;;;8.90;1.00;;;;;;4913649;29;20056;-76
2024/02/05 07:45:38;;;;;;;0.10;0.10;;;8.90;1.00;;;;;;4913099;29;20043;-74
2024/02/05 07:48:05;;;;;;;0.10;0.10;;;8.90;1.00;;;;;;4911246;29;20028;-74
2024/02/05 07:50:31;;;;;;;0.20;0.20;;;9.00;1.00;;;;;;4910842;29;20032;-75
2024/02/05 07:52:57;;;;;;;0.13;0.13;;;9.00;1.00;;;;;;4911347;29;20461;-75
2024/02/05 07:55:23;;;;;;;0.70;0.65;;;9.00;1.00;;;;;;4911865;29;20047;-75
2024/02/05 07:57:50;;;;;;;0.68;0.68;;;9.10;99.90;;;;;;4912802;29;20028;-74
2024/02/05 08:00:16;;;;;;;0.30;0.30;;;9.10;99.90;;;;;;4910373;29;20504;-75
2024/02/05 08:02:42;;;;;;;0.75;0.55;;;9.20;99.90;;;;;;4907792;29;20122;-74
2024/02/05 08:05:09;;;;;;;0.40;0.40;;;9.20;99.90;;;;;;4909793;29;20043;-74
2024/02/05 08:07:38;;;;;;;0.10;0.10;;;9.20;99.90;;;;;;4911200;29;20773;-74
2024/02/05 08:10:05;;;;;;;0.10;0.10;;;9.20;99.90;;;;;;4911500;29;20373;-75
2024/02/05 08:12:31;;;;;;;0.22;0.22;;;9.30;99.90;;;;;;4911959;29;20047;-75
2024/02/05 08:14:57;;;;;;;1.38;0.85;;;9.30;99.90;;;;;;4911573;29;20043;-74
2024/02/05 08:17:23;;;;;;;0.98;0.90;;;9.30;99.90;;;;;;4913457;29;20044;-74
2024/02/05 08:19:50;;;;;;;0.40;0.40;;;9.30;99.90;;;;;;4911423;29;20044;-76
2024/02/05 08:22:16;;;;;;;0.50;0.50;;;9.30;99.90;;;;;;4914105;29;20040;-75
2024/02/05 08:24:42;;;;;;;0.85;0.73;;;9.30;99.90;;;;;;4913102;29;20043;-75
2024/02/05 08:27:08;;;;;;;0.57;0.57;;;9.30;99.90;;;;;;4906164;29;20029;-78
2024/02/05 08:29:34;;;;;;;7.22;0.68;;;9.30;99.90;;;;;;4905044;29;20044;-75
2024/02/05 08:32:00;;;;;;;0.15;0.15;;;9.30;99.90;;;;;;4913656;29;20040;-75
2024/02/05 08:34:27;;;;;;;0.10;0.10;;;9.40;99.90;;;;;;4914100;29;20047;-75
2024/02/05 08:36:53;;;;;;;1.20;0.80;;;9.40;99.90;;;;;;4913163;29;20044;-75
2024/02/05 08:39:19;;;;;;;2.10;1.20;;;9.50;99.90;;;;;;4911567;29;20036;-75
2024/02/05 08:41:45;;;;;;;0.10;0.10;;;9.50;99.90;;;;;;4913284;29;20044;-74
2024/02/05 08:44:11;;;;;;;0.13;0.13;;;9.50;99.90;;;;;;4912226;29;20043;-74
2024/02/05 08:46:38;;;;;;;0.20;0.20;;;9.50;99.90;;;;;;4914103;29;20035;-74
2024/02/05 08:49:04;;;;;;;0.60;0.60;;;9.60;99.90;;;;;;4911016;29;20044;-75
2024/02/05 08:51:31;;;;;;;0.30;0.30;;;9.60;99.90;;;;;;4913665;29;20055;-75
2024/02/05 08:53:57;;;;;;;7.22;1.13;;;9.60;99.90;;;;;;4891589;29;20082;-76
2024/02/05 08:56:23;;;;;;;1.23;0.73;;;9.60;99.90;;;;;;4913974;29;20478;-76
2024/02/05 08:58:50;;;;;;;0.47;0.40;;;9.70;99.90;;;;;;4911744;29;20393;-76
2024/02/05 09:01:16;;;;;;;2.60;1.55;;;9.70;99.90;;;;;;4913802;29;20413;-77
2024/02/05 09:03:42;;;;;;;1.67;0.25;;;9.70;99.90;;;;;;4913487;29;20043;-75
2024/02/05 09:06:09;;;;;;;1.10;1.05;;;9.60;99.90;;;;;;4911875;29;21321;-77
2024/02/05 09:08:36;;;;;;;0.30;0.30;;;9.60;99.90;;;;;;4909872;29;20040;-76
2024/02/05 09:11:05;;;;;;;0.20;0.20;;;9.70;99.90;;;;;;4909003;29;20496;-76
2024/02/05 09:13:32;;;;;;;2.85;0.80;;;9.70;99.90;;;;;;4913221;29;20440;-76
2024/02/05 09:15:58;;;;;;;7.68;0.82;;;9.70;99.90;;;;;;4887242;29;20497;-76
2024/02/05 09:18:24;;;;;;;0.45;0.45;;;9.80;99.90;;;;;;4901180;29;20044;-78
2024/02/05 09:20:51;;;;;;;0.90;0.80;;;9.90;99.90;;;;;;4913429;29;20040;-78
2024/02/05 09:23:18;;;;;;;2.45;0.95;;;9.90;99.90;;;;;;4913865;29;20036;-78
2024/02/05 09:25:44;;;;;;;0.68;0.68;;;10.00;99.90;;;;;;4909877;29;20033;-78
2024/02/05 09:28:10;;;;;;;0.20;0.20;;;10.10;99.90;;;;;;4913538;29;20043;-78
2024/02/05 09:30:40;;;;;;;0.55;0.55;;;10.00;99.90;;;;;;4917872;29;20044;-79
2024/02/05 09:33:07;;;;;;;0.55;0.52;;;10.10;99.90;;;;;;4913535;29;20024;-78
2024/02/05 09:35:33;;;;;;;0.30;0.30;;;10.20;99.90;;;;;;4900941;29;20040;-79
2024/02/05 09:38:00;;;;;;;1.05;0.38;;;10.20;99.90;;;;;;4915364;29;20051;-84
2024/02/05 09:40:28;;;;;;;0.57;0.43;;;10.30;99.90;;;;;;4905977;29;20397;-78
2024/02/05 09:42:56;;;;;;;0.43;0.43;;;10.30;99.90;;;;;;4906752;29;20052;-79
2024/02/05 09:45:29;;;;;;;0.40;0.40;;;10.30;99.90;;;;;;4917945;29;20044;-78
2024/02/05 09:47:58;;;;;;;0.75;0.75;;;10.30;96.50;;;;;;4916045;29;20048;-79
2024/02/05 09:50:26;;;;;;;0.32;0.32;;;10.30;93.90;;;;;;4917206;29;20040;-78
2024/02/05 09:52:53;;;;;;;1.67;0.65;;;10.30;99.90;;;;;;4886947;29;20040;-78
2024/02/05 09:55:20;;;;;;;7.30;1.02;;;10.40;99.90;;;;;;4917554;29;20032;-78
2024/02/05 09:57:48;;;;;;;1.35;1.25;;;10.50;73.90;;;;;;4915116;29;20047;-84
2024/02/05 10:00:14;;;;;;;1.33;1.23;;;10.50;88.00;;;;;;4917278;29;20039;-78
2024/02/05 10:02:42;;;;;;;0.50;0.50;;;10.50;55.30;;;;;;4916004;29;20044;-80
2024/02/05 10:05:17;;;;;;;0.45;0.45;;;10.60;59.70;;;;;;4914497;29;20032;-79
2024/02/05 10:07:48;;;;;;;0.73;0.57;;;10.60;55.40;;;;;;4914103;29;20048;-81
2024/02/05 10:10:14;;;;;;;;;;;10.70;34.10;;;;;;4916999;29;20052;-77
2024/02/05 10:12:43;;;;;;;1.92;1.60;;;10.80;9.50;;;;;;4917039;29;19911;-79
2024/02/05 10:15:09;;;;;;;0.88;0.82;;;10.90;12.20;;;;;;4915340;29;20047;-78
2024/02/05 10:17:35;;;;;;;1.10;0.40;;;10.90;3.80;;;;;;4917702;29;20036;-77
2024/02/05 10:20:03;;;;;;;0.25;0.25;;;10.80;8.80;;;;;;4917763;29;20044;-78
2024/02/05 10:22:29;;;;;;;0.45;0.40;;;11.00;7.80;;;;;;4922294;29;20397;-78
2024/02/05 10:24:59;;;;;;;0.30;0.30;;;11.10;1.00;;;;;;4925685;29;20028;-80
2024/02/05 10:27:25;;;;;;;1.00;0.90;;;11.10;1.00;;;;;;4924247;29;20032;-79
2024/02/05 10:29:59;;;;;;;0.10;0.10;;;11.00;1.00;;;;;;4918900;29;20117;-80
2024/02/05 10:32:26;;;;;;;11.90;2.05;;;11.10;1.00;;;;;;4915781;29;20032;-78
2024/02/05 10:34:52;;;;;;;3.83;1.95;;;11.20;1.00;;;;;;4915782;29;20040;-83
2024/02/05 10:37:22;;;;;;;0.30;0.30;;;11.20;1.00;;;;;;4915089;29;20040;-78
2024/02/05 10:39:48;;;;;;;2.40;1.45;;;11.30;1.00;;;;;;4914420;29;20047;-78
2024/02/05 10:42:15;;;;;;;0.45;0.30;;;11.40;1.00;;;;;;4916876;29;20070;-79
2024/02/05 10:44:42;;;;;;;0.20;0.20;;;11.60;1.00;;;;;;4915592;29;20048;-79
2024/02/05 10:47:16;;;;;;;4.45;1.40;;;11.60;1.00;;;;;;4915364;29;20036;-77
2024/02/05 10:49:43;;;;;;;1.17;0.88;;;11.40;1.00;;;;;;4916435;29;20036;-78
2024/02/05 10:52:13;;;;;;;0.75;0.75;;;11.30;1.00;;;;;;4915966;29;20316;-78
2024/02/05 10:54:40;;;;;;;0.20;0.20;;;11.30;1.00;;;;;;4913948;29;20052;-79
2024/02/05 10:57:08;;;;;;;0.20;0.20;;;11.40;1.00;;;;;;4915780;29;20045;-78
2024/02/05 10:59:34;;;;;;;0.55;0.40;;;11.30;1.00;;;;;;4915937;29;20430;-76
2024/02/05 11:02:18;;;;;;;0.57;0.57;;;11.20;1.00;;;;;;4915435;29;20047;-79
2024/02/05 11:04:46;;;;;;;0.63;0.57;;;11.10;1.00;;;;;;4915792;29;20043;-79
2024/02/05 11:07:17;;;;;;;3.00;0.40;;;11.00;1.00;;;;;;4914511;29;20375;-79
2024/02/05 11:09:47;;;;;;;0.10;0.10;;;11.00;1.00;;;;;;4916341;29;20090;-79
2024/02/05 11:12:15;;;;;;;0.30;0.30;;;11.00;1.00;;;;;;4915804;29;20047;-78
2024/02/05 11:14:45;;;;;;;3.30;1.30;;;10.90;1.00;;;;;;4922854;29;20044;-79
2024/02/05 11:17:13;;;;;;;0.52;0.52;;;10.90;1.00;;;;;;4915604;29;20047;-77
2024/02/05 11:19:41;;;;;;;0.57;0.57;;;10.90;1.00;;;;;;4915030;29;20039;-79
2024/02/05 11:22:10;;;;;;;0.32;0.30;;;10.90;1.00;;;;;;4912355;29;20057;-78
2024/02/05 11:24:37;;;;;;;0.22;0.22;;;10.80;1.00;;;;;;4910021;29;20048;-78
2024/02/05 11:27:04;;;;;;;0.50;0.50;;;11.00;1.00;;;;;;4915455;29;20044;-78
2024/02/05 11:29:34;;;;;;;1.15;0.43;;;11.20;1.00;;;;;;4915487;29;20039;-78
2024/02/05 11:32:03;;;;;;;0.22;0.22;;;11.20;1.00;;;;;;4914866;29;20538;-79
2024/02/05 11:34:37;;;;;;;6.05;1.20;;;11.50;1.00;;;;;;4919872;29;20048;-78
2024/02/05 11:37:13;;;;;;;4.50;1.40;;;11.90;1.00;;;;;;4918080;29;20408;-78
2024/02/05 11:39:43;;;;;;;0.65;0.40;;;11.90;1.00;;;;;;4919569;29;20061;-78
2024/02/05 11:42:10;;;;;;;0.40;0.40;;;12.00;1.00;;;;;;4916432;29;20032;-80
2024/02/05 11:44:36;;;;;;;0.52;0.52;;;12.10;1.00;;;;;;4913869;29;20307;-80
2024/02/05 11:47:04;;;;;;;1.38;0.57;;;12.00;1.00;;;;;;4913342;29;20405;-80
2024/02/05 11:49:34;;;;;;;0.43;0.43;;;12.00;1.00;;;;;;4915114;29;20044;-80
2024/02/05 11:52:03;;;;;;;2.10;1.65;;;12.10;99.90;;;;;;4909843;29;20044;-82
2024/02/05 11:54:30;;;;;;;0.13;0.13;;;11.90;99.90;;;;;;4915275;29;20051;-80
2024/02/05 11:56:57;;;;;;;1.35;1.08;;;11.90;1.00;;;;;;4895397;29;20049;-81
2024/02/05 11:59:24;;;;;;;0.80;0.73;;;12.00;99.90;;;;;;4915576;29;20047;-79
2024/02/05 12:01:51;;;;;;;0.50;0.50;;;12.10;99.90;;;;;;4907227;29;20052;-80
2024/02/05 12:04:18;;;;;;;0.20;0.20;;;12.20;99.90;;;;;;4912384;29;20044;-81
2024/02/05 12:06:46;;;;;;;0.30;0.30;;;12.30;99.90;;;;;;4913487;29;20040;-80
2024/02/05 12:09:16;;;;;;;0.40;0.30;;;12.20;99.90;;;;;;4913865;29;20393;-81
2024/02/05 12:11:43;;;;;;;0.45;0.40;;;12.20;99.90;;;;;;4908754;29;20069;-81
2024/02/05 12:14:12;;;;;;;0.30;0.30;;;12.20;99.90;;;;;;4913243;29;20032;-81
2024/02/05 12:16:40;;;;;;;0.95;0.95;;;12.50;99.90;;;;;;4895263;29;20040;-78
2024/02/05 12:19:08;;;;;;;0.40;0.40;;;12.90;99.90;;;;;;4904855;29;20397;-81
2024/02/05 12:21:35;;;;;;;1.30;1.20;;;13.00;99.90;;;;;;4912001;29;20056;-79
2024/02/05 12:24:03;;;;;;;0.20;0.20;;;13.00;99.90;;;;;;4914468;29;20036;-80
2024/02/05 12:26:30;;;;;;;0.30;0.30;;;12.80;99.90;;;;;;4909131;29;20458;-82
2024/02/05 12:28:56;;;;;;;0.77;0.77;;;12.60;99.90;;;;;;4909403;29;20036;-84
2024/02/05 12:31:22;;;;;;;1.13;0.50;;;12.50;99.90;;;;;;4912428;29;20036;-81
2024/02/05 12:33:56;;;;;;;0.40;0.22;;;12.50;99.90;;;;;;4915631;29;20040;-79
2024/02/05 12:36:24;;;;;;;0.38;0.30;;;12.30;99.90;;;;;;4909015;29;20152;-81
2024/02/05 12:38:52;;;;;;;0.55;0.55;;;12.40;99.90;;;;;;4893445;29;20047;-79
2024/02/05 12:41:18;;;;;;;0.77;0.77;;;12.40;99.90;;;;;;4924079;29;20028;-81
2024/02/05 12:43:45;;;;;;;0.55;0.55;;;12.50;99.90;;;;;;4913347;29;20043;-81
2024/02/05 12:46:12;;;;;;;0.20;0.20;;;12.50;99.90;;;;;;4912966;29;20032;-81
2024/02/05 12:48:38;;;;;;;0.98;0.63;;;12.50;99.90;;;;;;4898762;29;20036;-80
2024/02/05 12:51:07;;;;;;;1.42;0.60;;;12.60;99.90;;;;;;4913120;29;20495;-81
2024/02/05 12:53:34;;;;;;;0.20;0.20;;;12.50;99.90;;;;;;4913715;29;20066;-81
2024/02/05 12:56:04;;;;;;;0.10;0.10;;;12.60;99.90;;;;;;4912873;29;20048;-82
2024/02/05 12:58:30;;;;;;;0.98;0.25;;;12.60;99.90;;;;;;4898855;29;20044;-78
2024/02/05 13:00:56;;;;;;;0.60;0.60;;;12.50;99.90;;;;;;4914882;29;20035;-80
2024/02/05 13:03:23;;;;;;;0.28;0.28;;;12.40;99.90;;;;;;4919579;29;20040;-79
2024/02/05 13:05:49;;;;;;;0.10;0.10;;;12.40;99.90;;;;;;4916827;29;20036;-78
2024/02/05 13:08:15;;;;;;;1.05;0.63;;;12.40;99.90;;;;;;4913804;29;20043;-78
2024/02/05 13:10:43;;;;;;;1.38;0.40;;;12.40;99.90;;;;;;4917608;29;20048;-78
2024/02/05 13:13:10;;;;;;;0.75;0.75;;;12.40;99.90;;;;;;4917381;29;20038;-77
2024/02/05 13:15:37;;;;;;;0.47;0.47;;;12.50;99.90;;;;;;4918891;29;20141;-78
2024/02/05 13:18:09;;;;;;;0.30;0.30;;;12.40;99.90;;;;;;4918002;29;20359;-79
2024/02/05 13:20:35;;;;;;;0.15;0.15;;;12.40;99.90;;;;;;4915439;29;20056;-78
2024/02/05 13:23:02;;;;;;;0.57;0.40;;;12.50;99.90;;;;;;4917890;29;20527;-80
2024/02/05 13:25:31;;;;;;;0.20;0.20;;;12.40;99.90;;;;;;4918261;29;20040;-80
2024/02/05 13:27:58;;;;;;;0.30;0.30;;;12.40;99.90;;;;;;4918645;29;20032;-79
2024/02/05 13:30:25;;;;;;;0.10;0.10;;;12.40;99.90;;;;;;4918480;29;20032;-77
2024/02/05 13:32:51;;;;;;;0.55;0.55;;;12.30;99.90;;;;;;4918749;29;20036;-79
2024/02/05 13:35:18;;;;;;;0.38;0.38;;;12.20;99.90;;;;;;4889769;29;20032;-79
2024/02/05 13:37:45;;;;;;;2.60;0.73;;;12.20;99.90;;;;;;4911198;29;20036;-78
2024/02/05 13:40:13;;;;;;;0.20;0.20;;;12.20;99.90;;;;;;4917778;29;20040;-79
2024/02/05 13:42:42;;;;;;;0.10;0.10;;;12.20;99.90;;;;;;4916895;29;20482;-79
2024/02/05 13:45:11;;;;;;;0.25;0.25;;;12.30;99.90;;;;;;4926165;29;20055;-77
2024/02/05 13:47:37;;;;;;;0.65;0.65;;;12.30;99.90;;;;;;4916976;29;20092;-79
2024/02/05 13:50:07;;;;;;;0.20;0.20;;;12.30;99.90;;;;;;4916579;29;20067;-78
2024/02/05 13:52:34;;;;;;;0.93;0.82;;;12.40;99.90;;;;;;4917618;29;20036;-79
2024/02/05 13:55:01;;;;;;;0.20;0.20;;;12.30;99.90;;;;;;4917249;29;20043;-86
2024/02/05 13:57:27;;;;;;;1.13;0.57;;;12.20;99.90;;;;;;4918908;29;20052;-80
2024/02/05 13:59:53;;;;;;;0.17;0.17;;;12.20;99.90;;;;;;4917613;29;20036;-79
2024/02/05 14:02:20;;;;;;;0.40;0.40;;;12.30;99.90;;;;;;4919763;29;20044;-79
2024/02/05 14:04:49;;;;;;;0.65;0.65;;;12.30;99.90;;;;;;4907430;29;20041;-79
2024/02/05 14:07:17;;;;;;;0.38;0.38;;;12.40;99.90;;;;;;4918400;29;20044;-79
2024/02/05 14:09:43;;;;;;;0.98;0.85;;;12.40;99.90;;;;;;4917387;29;20043;-78
2024/02/05 14:12:09;;;;;;;0.10;0.10;;;12.30;99.90;;;;;;4917836;29;20024;-79
2024/02/05 14:14:35;;;;;;;0.90;0.77;;;12.20;99.90;;;;;;4919079;29;20043;-78
2024/02/05 14:17:04;;;;;;;1.55;1.20;;;12.30;99.90;;;;;;4922395;29;20040;-83
2024/02/05 14:19:30;;;;;;;2.22;0.82;;;12.40;99.90;;;;;;4918223;29;20024;-78
2024/02/05 14:21:57;;;;;;;3.50;0.30;;;12.30;99.90;;;;;;4910255;29;20056;-79
2024/02/05 14:24:23;;;;;;;0.22;0.22;;;12.20;99.90;;;;;;4917765;29;20043;-79
2024/02/05 14:26:49;;;;;;;0.10;0.10;;;12.30;99.90;;;;;;4918014;29;20028;-79
2024/02/05 14:29:15;;;;;;;0.88;0.52;;;12.30;99.90;;;;;;4917899;29;20454;-79
2024/02/05 14:31:42;;;;;;;0.38;0.30;;;12.30;99.90;;;;;;4917912;29;20036;-79
2024/02/05 14:34:08;;;;;;;2.33;0.77;;;12.30;99.90;;;;;;4917574;29;20039;-79
2024/02/05 14:36:34;;;;;;;0.15;0.15;;;12.30;99.90;;;;;;4925157;29;20044;-82
2024/02/05 14:39:00;;;;;;;0.10;0.10;;;12.20;99.90;;;;;;4942672;29;20042;-81
2024/02/05 14:41:26;;;;;;;0.85;0.85;;;12.10;99.90;;;;;;4931939;29;20031;-79
2024/02/05 14:43:53;;;;;;;0.25;0.25;;;12.00;99.90;;;;;;4925148;29;20040;-78
2024/02/05 14:46:19;;;;;;;0.10;0.10;;;11.90;99.90;;;;;;4923202;29;20036;-79
2024/02/05 14:48:45;;;;;;;0.70;0.70;;;11.90;99.90;;;;;;4918645;29;20029;-80
2024/02/05 14:51:11;;;;;;;0.20;0.20;;;11.80;99.90;;;;;;4921013;29;20063;-79
2024/02/05 14:53:39;;;;;;;1.92;1.08;;;11.80;99.90;;;;;;4928942;29;20390;-80
2024/02/05 14:56:05;;;;;;;0.30;0.30;;;11.80;99.90;;;;;;4918024;29;20375;-80
2024/02/05 14:58:32;;;;;;;1.38;0.90;;;11.80;99.90;;;;;;4917600;29;20028;-79
2024/02/05 15:00:58;;;;;;;0.20;0.20;;;11.90;99.90;;;;;;4902621;29;20482;-80
2024/02/05 15:03:24;;;;;;;0.20;0.20;;;11.90;99.90;;;;;;4917015;29;20160;-80
2024/02/05 15:05:50;;;;;;;0.40;0.40;;;11.90;99.90;;;;;;4916876;29;20040;-81
2024/02/05 15:08:16;;;;;;;0.95;0.90;;;11.80;99.90;;;;;;4916742;29;20028;-81
2024/02/05 15:10:43;;;;;;;1.55;1.45;;;11.70;99.90;;;;;;4919451;29;20055;-80
2024/02/05 15:13:09;;;;;;;0.40;0.40;;;11.60;99.90;;;;;;4914780;29;20028;-79
2024/02/05 15:15:35;;;;;;;0.80;0.40;;;11.50;99.90;;;;;;4916737;29;20036;-79
2024/02/05 15:18:01;;;;;;;0.93;0.82;;;11.40;99.90;;;;;;4916921;29;20047;-81
2024/02/05 15:20:28;;;;;;;1.17;0.40;;;11.40;99.90;;;;;;4916306;29;20032;-78
2024/02/05 15:22:54;;;;;;;0.20;0.20;;;11.30;99.90;;;;;;4917396;29;20044;-79
2024/02/05 15:25:20;;;;;;;0.40;0.40;;;11.30;99.90;;;;;;4916401;29;20051;-80
2024/02/05 15:27:46;;;;;;;0.20;0.20;;;11.30;99.90;;;;;;4915038;29;20051;-80
2024/02/05 15:30:12;;;;;;;0.20;0.20;;;11.30;99.90;;;;;;4914233;29;20059;-80
2024/02/05 15:32:39;;;;;;;0.10;0.10;;;11.20;99.90;;;;;;4918639;29;20048;-78
2024/02/05 15:35:07;;;;;;;0.65;0.65;;;11.10;99.90;;;;;;4918236;29;20036;-78
2024/02/05 15:37:33;;;;;;;1.85;0.93;;;11.00;99.90;;;;;;4917024;29;20032;-82
2024/02/05 15:40:00;;;;;;;0.20;0.20;;;10.90;99.90;;;;;;4916905;29;20058;-80
2024/02/05 15:42:29;;;;;;;0.77;0.77;;;10.80;1.00;;;;;;4892818;29;20534;-79
2024/02/05 15:44:56;;;;;;;0.28;0.28;;;10.60;1.00;;;;;;4916595;29;20036;-79
2024/02/05 15:47:23;;;;;;;2.08;1.30;;;10.50;1.00;;;;;;4882449;29;20494;-80
2024/02/05 15:49:49;;;;;;;0.20;0.20;;;10.50;1.00;;;;;;4865212;29;20049;-79
2024/02/05 15:52:15;;;;;;;0.60;0.55;;;10.40;1.00;;;;;;4905480;29;20469;-80
2024/02/05 15:54:41;;;;;;;0.60;0.60;;;10.30;1.00;;;;;;4917120;29;20385;-79
2024/02/05 15:57:08;;;;;;;0.35;0.22;;;10.30;1.00;;;;;;4917220;29;20052;-79
2024/02/05 15:59:34;;;;;;;0.90;0.60;;;10.10;1.00;;;;;;4914267;29;20051;-82
2024/02/05 16:02:01;;;;;;;0.30;0.30;;;10.10;1.00;;;;;;4887550;29;20389;-80
2024/02/05 16:04:27;;;;;;;0.65;0.65;;;10.00;1.00;;;;;;4914886;29;20043;-81
2024/02/05 16:06:53;;;;;;;1.65;1.33;;;9.90;1.00;;;;;;4914873;29;20052;-82
2024/02/05 16:09:19;;;;;;;0.52;0.43;;;9.80;1.00;;;;;;4921957;29;20106;-82
2024/02/05 16:11:47;;;;;;;0.32;0.30;;;9.70;1.00;;;;;;4914738;29;20047;-85
2024/02/05 16:14:13;;;;;;;0.52;0.50;;;9.70;1.00;;;;;;4919561;29;20043;-84
2024/02/05 16:16:42;;;;;;;0.25;0.25;;;9.70;1.00;;;;;;4914031;29;20417;-85
2024/02/05 16:19:09;;;;;;;1.15;0.88;;;9.60;1.00;;;;;;4898410;29;20044;-85
2024/02/05 16:21:35;;;;;;;0.17;0.17;;;9.50;1.00;;;;;;4913712;29;20043;-84
2024/02/05 16:24:03;;;;;;;0.20;0.20;;;9.50;1.00;;;;;;4910625;29;20044;-82
2024/02/05 16:26:29;;;;;;;3.83;1.67;;;9.50;1.00;;;;;;4913213;29;20040;-80
2024/02/05 16:28:56;;;;;;;2.85;0.38;;;9.40;1.00;;;;;;4914616;29;20051;-79
2024/02/05 16:31:23;;;;;;;0.35;0.35;;;9.30;1.00;;;;;;4914378;29;20048;-80
2024/02/05 16:33:49;;;;;;;0.30;0.30;;;9.20;1.00;;;;;;4914568;29;20039;-80
2024/02/05 16:36:17;;;;;;;2.00;1.15;;;9.10;7.10;;;;;;4914801;29;20385;-80
2024/02/05 16:38:45;;;;;;;0.75;0.75;;;9.10;18.10;;;;;;4918029;29;20028;-79
2024/02/05 16:41:12;;;;;;;0.25;0.25;;;9.00;32.10;;;;;;4915582;29;20036;-79
2024/02/05 16:43:39;;;;;;;0.25;0.25;;;8.90;37.90;;;;;;4919199;29;20036;-79
2024/02/05 16:46:11;;;;;;;0.38;0.22;;;8.90;48.90;;;;;;4919401;29;20036;-79
2024/02/05 16:48:38;;;;;;;0.22;0.22;;;8.80;75.20;;;;;;4893026;29;20032;-80
2024/02/05 16:51:05;;;;;;;1.27;1.20;;;8.70;91.00;;;;;;4918818;29;20039;-77
2024/02/05 16:53:31;;;;;;;6.43;2.30;;;8.60;99.90;;;;;;4916731;29;20291;-76
2024/02/05 16:55:57;;;;;;;0.80;0.80;;;8.50;99.90;;;;;;4894158;29;20028;-76
2024/02/05 16:58:24;;;;;;;3.70;1.50;;;8.40;99.90;;;;;;4914322;29;20470;-76